Monte Negro, Brazil
Current Conditions -  °F | °C
As of 2:00 PM on Thursday 29 Jan 2015 (Local Time) from SBPV Reporting Station
Broken Clouds Broken Clouds  
Wind Chill: 88°   Ceiling: 8000
Heat Index: 94°   Visibility: 6mi
Dew Point: 72°   Wind: 5mph
Humidity: 58%   Direction: 130°SE
Pressure: 29.83"   Gusts: NA
Location:  10.29°S, 63.33°W
Report Text: SBPV 291800Z 13004KT 9999 SCT020 BKN080 31/22 Q1010
Loading
Personal Weather Stations






























Interactive Weather Map New forecast layout! Learn more

10-Day Weather Forecast

Advertisements
Track Severe Weather on mobile